TFM - Tactical Decision Aid
ID: Runway Winds: CIG/VIS Threshold:

KSAN - San Diego Intl Arpt, CA, US

Updated at: 2038 UTC 17 Jun 2019
Latest TAF at: 1957 UTC 17 Jun 2019

TAF Board

Time1951Z 17/21Z 17/22Z 17/23Z 18/00Z 18/01Z 18/02Z 18/03Z 18/04Z 18/05Z 18/06Z 18/07Z 18/08Z 18/09Z>>
Type OBS PRVL PRVL PRVL PRVL PRVL PRVL PRVL PRVL PRVL PRVL PRVL PRVL PRVL
VIS 10 >6 >6 >6 >6 >6 >6 >6 >6 >6 >6 >6 >6 >6
CIG 24 24 24 24 24 24 20 20 20 20 13 13 13 13
Cover OVC OVC OVC OVC OVC OVC OVC OVC OVC OVC OVC OVC OVC OVC
FltCat MVFR MVFR MVFR MVFR MVFR MVFR MVFR MVFR MVFR MVFR MVFR MVFR MVFR MVFR
WX -- -- -- -- -- -- -- -- -- -- -- -- -- --
WDir 210 230 230 230 230 230 250 250 250 250 230 230 230 230
WSpd 8 8 8 8 8 8 4 4 4 4 3 3 3 3
WGst -- -- -- -- -- -- -- -- -- -- -- -- -- --

TDA Impact Legend

  None Marginal Slight Moderate High
Visibility (sm) >5 3≤X≤5 2≤X<3 1≤X<2 <1
Ceiling (100 ft) >30 10≤X≤30 8≤X<10 4≤X<8 <4
Wind Speed (kt) <15 15≤X<25 25≤X<30 ≥30
Wind Gust (kt) <15 15≤X<25 25≤X<35 ≥35
Weather No Wx Reported VCTS -TS,-FZRA TS,FZRA +TS,+FZRA
TAF
KSAN 171957Z 1720/1824 23008KT P6SM SCT014 OVC024
  FM180200 25004KT P6SM OVC020
  FM180600 23003KT P6SM OVC013
  FM182000 25008KT P6SM BKN019


METAR
KSAN 171951Z 21008KT 10SM SCT014 OVC024 18/14 A2995 RMK AO2 SLP141 T01780139 $
KSAN 171851Z 18009KT 10SM SCT012 OVC018 17/14 A2995 RMK AO2 SLP141 T01720139 $
KSAN 171757Z 25005KT 10SM SCT012 OVC018 17/14 A2994 RMK AO2 T01720139 $
KSAN 171751Z 24005KT 10SM BKN012 OVC016 17/14 A2994 RMK AO2 SLP137 T01720139 51010 $

Radar Display
Forecast Discussion